Decoded Metar for RKSI (CHAJANG NI in KOREA) (IATA:N/A) | Meteo·Mobile Aviation Weather
aviador You're here:

RKSI Decoded Metar

CHAJANG NI in KOREA
Report Time2020-02-22 09:00:00
UTC Time2020-02-22 09:31:18
Flight Rules vfr VFR
Wind290° at 18 kt
W.Decomp.*RWY 33: 15.3 kt HW 9.5 kt LCW
RWY 34: 13.4 kt HW 12 kt LCW
Visibility9999 m
Phenomena:N/A
Clouds:Few 025 Hf
Expected CloudBase > 3,600 ft AGL from Temp-Dew spread
CeilingNone
Temp04°C (ISA -11)
Dew Point-5°C (52% RH)
AAT-5.1°C
QNH1026 hPa
Density Alt-1,686 ft
Elevation23 ft
Report Wrong Elevation
Raw Report
METAR RKSI 220900Z 29018KT 9999 FEW025 04/M05 Q1026 NOSIG=

Extra information for RKSI:More info

Metar Taf Metar & Taf Last 4 Metars F.Rules Stats Wind Profile Meteogram Temp Stats Airport Information Weather charts Add Link Nearby VenuesMetar ALERT Operation Metar Decoded Social comments